Warman, Canada
Current Conditions -  °F | °C
As of 3:00 PM on Sunday 23 Nov 2014 (Local Time) from CYXE Reporting Station
Snow Showers Snow Showers  
Wind Chill: 14°   Ceiling: 6500
Heat Index: 14°   Visibility: 8mi
Dew Point: 10°   Wind: 3mph
Humidity: 86%   Direction: 120°ESE
Pressure: 29.84"   Gusts: NA
Location:  52.32°N, 106.57°W
Report Text: CYXE 232100Z 12003KT 8SM -SHSN BKN065 BKN250 M10/M12 A2984 RMK SC5CI2 SLP145
Loading
Personal Weather Stations






























Interactive Weather Map New forecast layout! Learn more

10-Day Weather Forecast

Advertisements
Track Severe Weather on mobile